Data for 09/18/2013

Time Sea-Level Adjusted Pressure Absolute Pressure Temperature Relative Humidity Dew Point   
(mb) (inHg) (mb) (inHg) (C) (F) (%) (C) (F)
00:05 1010 29.83 839 24.78 9.3 48.8 90 7.7 45.9
00:10 1010 29.83 839 24.78 9.2 48.6 90 7.7 45.8
00:15 1010 29.83 839 24.78 9 48.2 91 7.6 45.6
00:20 1010 29.83 839 24.78 8.9 48 91 7.5 45.4
00:25 1010 29.83 839 24.78 9 48.2 90 7.4 45.3
00:30 1010 29.83 839 24.78 9.1 48.4 90 7.5 45.5
00:35 1010 29.83 839 24.78 9.1 48.4 90 7.5 45.5
00:40 1010 29.83 839 24.78 9.2 48.6 89 7.5 45.5
00:45 1010 29.83 839 24.78 9.4 48.9 88 7.5 45.4
00:50 1010 29.83 839 24.78 9.4 49 88 7.5 45.5
00:55 1010 29.83 839 24.78 9.3 48.8 88 7.4 45.4
01:00 1010 29.83 839 24.78 9.3 48.8 88 7.4 45.3
01:05 1010 29.83 839 24.78 9.4 48.9 87 7.3 45.2
01:10 1010 29.83 839 24.78 9.4 48.9 87 7.4 45.3
01:15 1010 29.83 839 24.78 9.3 48.8 88 7.4 45.2
01:20 1010 29.83 839 24.78 9.3 48.8 87 7.4 45.3
01:25 1010 29.83 839 24.78 9.4 48.9 87 7.3 45.2
01:30 1010 29.83 839 24.78 9.6 49.3 86 7.4 45.3
01:35 1010 29.83 839 24.78 9.7 49.4 86 7.4 45.3
01:40 1010 29.83 839 24.78 9.7 49.5 85 7.3 45.2
01:45 1009 29.8 839 24.78 9.9 49.8 83 7.2 45
01:50 1009 29.8 838 24.75 10.1 50.2 82 7.1 44.8
01:55 1009 29.8 839 24.78 10.2 50.4 82 7.4 45.2
02:00 1009 29.8 838 24.75 10.1 50.2 82 7.2 45
02:05 1009 29.8 838 24.75 10.1 50.3 82 7.2 45
02:10 1009 29.8 838 24.75 10.2 50.4 81 7.2 44.9
02:15 1009 29.8 838 24.75 10.3 50.5 81 7.2 45
02:20 1009 29.8 838 24.75 10.3 50.5 81 7.1 44.8
02:25 1009 29.8 838 24.75 10.4 50.7 81 7.2 45
02:30 1009 29.8 838 24.75 10.4 50.7 80 7.2 45
02:35 1009 29.8 838 24.75 10.3 50.5 82 7.3 45.2
02:40 1009 29.8 838 24.75 10.2 50.4 81 7.1 44.8
02:45 1009 29.8 838 24.75 10.3 50.5 80 7.1 44.7
02:50 1009 29.8 838 24.75 10.5 50.9 79 7 44.7
02:55 1009 29.8 838 24.75 10.5 50.9 79 7.1 44.8
03:00 1009 29.8 838 24.75 10.5 51 79 7.1 44.7
03:05 1009 29.8 838 24.75 10.5 50.8 80 7.2 45
03:10 1009 29.8 839 24.78 10.2 50.3 82 7.2 44.9
03:15 1010 29.83 839 24.78 9.9 49.7 84 7.3 45.2
03:20 1009 29.8 839 24.78 9.2 48.6 89 7.5 45.4
03:25 1010 29.83 839 24.78 8.9 48 90 7.3 45.1
03:30 1010 29.83 839 24.78 8.6 47.5 92 7.3 45.2
03:35 1010 29.83 839 24.78 8.5 47.3 92 7.3 45.1
03:40 1010 29.83 839 24.78 8.5 47.4 92 7.3 45.2
03:45 1010 29.83 839 24.78 8.6 47.4 92 7.3 45.2
03:50 1010 29.83 839 24.78 8.4 47.1 93 7.3 45.1
03:55 1010 29.83 839 24.78 8.4 47.2 92 7.3 45.1
04:00 1010 29.83 839 24.78 8.4 47.1 93 7.3 45.1
04:05 1010 29.83 839 24.78 8.5 47.3 93 7.4 45.3
04:10 1010 29.83 840 24.81 8.6 47.4 93 7.4 45.4
04:15 1010 29.83 839 24.78 8.5 47.2 93 7.4 45.3
04:20 1010 29.83 839 24.78 8.4 47 93 7.3 45.2
04:25 1010 29.83 839 24.78 8.3 47 94 7.3 45.2
04:30 1010 29.83 839 24.78 8.3 47 94 7.3 45.2
04:35 1010 29.83 839 24.78 8.3 46.9 94 7.3 45.2
04:40 1010 29.83 839 24.78 8.3 46.9 94 7.3 45.2
04:45 1010 29.83 839 24.78 8.3 46.9 94 7.3 45.2
04:50 1010 29.83 839 24.78 8.3 46.9 94 7.3 45.2
04:55 1010 29.83 839 24.78 8.4 47 94 7.4 45.3
05:00 1010 29.83 839 24.78 8.4 47.2 93 7.4 45.4
05:05 1010 29.83 839 24.78 8.5 47.2 93 7.4 45.4
05:10 1010 29.83 839 24.78 8.5 47.3 93 7.4 45.3
05:15 1010 29.83 839 24.78 8.6 47.6 92 7.5 45.4
05:20 1010 29.83 839 24.78 8.8 47.8 91 7.4 45.4
05:25 1010 29.83 839 24.78 8.8 47.8 91 7.4 45.4
05:30 1010 29.83 839 24.78 8.6 47.4 92 7.4 45.3
05:35 1010 29.83 839 24.78 8.5 47.2 92 7.3 45.1
05:40 1010 29.83 839 24.78 8.5 47.3 92 7.2 45
05:45 1010 29.83 839 24.78 8.6 47.5 92 7.3 45.1
05:50 1010 29.83 839 24.78 8.7 47.7 91 7.3 45.2
05:55 1010 29.83 839 24.78 8.6 47.5 91 7.3 45.1
06:00 1010 29.83 839 24.78 8.5 47.3 93 7.4 45.2
06:05 1010 29.83 839 24.78 8.5 47.4 92 7.3 45.2
06:10 1010 29.83 839 24.78 8.4 47.2 92 7.2 44.9
06:15 1010 29.83 839 24.78 8.4 47.2 93 7.3 45.1
06:20 1010 29.83 839 24.78 8.5 47.3 92 7.2 45
06:25 1010 29.83 840 24.81 8.4 47.1 92 7.2 44.9
06:30 1010 29.83 840 24.81 8.4 47.2 90 6.9 44.5
06:35 1011 29.85 840 24.81 8.2 46.7 92 6.9 44.4
06:40 1011 29.85 840 24.81 8.2 46.8 92 7 44.5
06:45 1011 29.85 840 24.81 8.3 46.9 92 7.1 44.7
06:50 1011 29.85 840 24.81 8.8 47.9 90 7.3 45.1
06:55 1011 29.85 840 24.81 9.1 48.4 89 7.3 45.2
07:00 1011 29.85 840 24.81 8.8 47.9 90 7.2 45
07:05 1011 29.85 840 24.81 8.8 47.8 90 7.3 45.1
07:10 1011 29.85 841 24.83 8.8 47.8 91 7.4 45.4
07:15 1012 29.88 841 24.83 8.9 48 91 7.5 45.6
07:20 1012 29.88 841 24.83 8.9 48.1 91 7.6 45.7
07:25 1012 29.88 841 24.83 9.1 48.3 91 7.7 45.9
07:30 1012 29.88 841 24.83 9.2 48.5 91 7.8 46
07:35 1012 29.88 841 24.83 9.3 48.7 91 7.8 46.1
07:40 1012 29.88 841 24.83 9.2 48.6 91 7.9 46.2
07:45 1012 29.88 841 24.83 9.2 48.5 92 7.9 46.3
07:50 1012 29.88 841 24.83 9.1 48.4 91 7.7 45.9
07:55 1012 29.88 842 24.86 9 48.3 89 7.3 45.1
08:00 1012 29.88 842 24.86 8.9 47.9 86 6.7 44.1
08:05 1012 29.88 842 24.86 8.6 47.5 87 6.6 44
08:10 1013 29.91 842 24.86 8.4 47.2 88 6.5 43.7
08:15 1013 29.91 842 24.86 8.2 46.7 87 6.2 43.1
08:20 1013 29.91 842 24.86 8 46.4 88 6.2 43.1
08:25 1013 29.91 842 24.86 7.8 46.1 88 5.9 42.6
08:30 1013 29.91 843 24.89 7.7 45.9 89 6 42.7
08:35 1013 29.91 843 24.89 7.6 45.7 89 5.9 42.6
08:40 1014 29.94 843 24.89 7.6 45.7 90 6 42.8
08:45 1014 29.94 843 24.89 7.5 45.6 89 5.8 42.4
08:50 1014 29.94 843 24.89 7.5 45.5 89 5.8 42.4
08:55 1014 29.94 843 24.89 7.5 45.5 90 5.9 42.6
09:00 1014 29.94 843 24.89 7.4 45.4 90 6 42.7
09:05 1014 29.94 843 24.89 7.4 45.3 90 5.8 42.5
09:10 1014 29.94 843 24.89 7.3 45.2 90 5.8 42.4
09:15 1014 29.94 843 24.89 7.3 45.1 89 5.6 42.1
09:20 1014 29.94 843 24.89 7.3 45.1 90 5.7 42.3
09:25 1014 29.94 843 24.89 7.2 44.9 85 4.8 40.7
09:30 1014 29.94 843 24.89 6.9 44.5 84 4.4 39.9
09:35 1014 29.94 844 24.92 6.5 43.7 86 4.4 39.9
09:40 1014 29.94 844 24.92 6.4 43.5 85 4 39.3
09:45 1014 29.94 844 24.92 6.4 43.5 84 3.9 39.1
09:50 1014 29.94 844 24.92 6.4 43.5 84 3.9 38.9
09:55 1014 29.94 844 24.92 6.3 43.3 84 3.8 38.8
10:00 1014 29.94 844 24.92 6.3 43.3 84 3.8 38.8
10:05 1014 29.94 843 24.89 6.3 43.3 84 3.7 38.7
10:10 1014 29.94 843 24.89 6.4 43.4 85 4 39.1
10:15 1014 29.94 843 24.89 6.4 43.5 86 4.2 39.6
10:20 1014 29.94 843 24.89 6.6 43.8 85 4.2 39.6
10:25 1014 29.94 843 24.89 6.9 44.3 83 4.2 39.6
10:30 1014 29.94 843 24.89 7.1 44.7 83 4.4 40
10:35 1014 29.94 843 24.89 7.2 45 82 4.4 40
10:40 1014 29.94 844 24.92 7.4 45.2 82 4.5 40
10:45 1014 29.94 844 24.92 7.4 45.3 84 4.8 40.6
10:50 1014 29.94 844 24.92 7.3 45.1 83 4.6 40.3
10:55 1014 29.94 844 24.92 7.4 45.3 84 4.8 40.7
11:00 1015 29.97 844 24.92 7.4 45.4 82 4.5 40.1
11:05 1015 29.97 844 24.92 7.4 45.4 81 4.4 39.9
11:10 1015 29.97 844 24.92 7.5 45.5 82 4.6 40.2
11:15 1014 29.94 844 24.92 7.7 45.9 84 5.2 41.3
11:20 1014 29.94 844 24.92 8 46.4 82 5.1 41.2
11:25 1014 29.94 844 24.92 8.4 47.1 79 5 41
11:30 1014 29.94 844 24.92 8.8 47.8 76 4.7 40.5
11:35 1015 29.97 844 24.92 8.8 47.9 78 5.2 41.4
11:40 1015 29.97 844 24.92 8.9 48.1 75 4.8 40.7
11:45 1015 29.97 844 24.92 9 48.2 76 5 41.1
11:50 1015 29.97 844 24.92 9.1 48.4 77 5.3 41.5
11:55 1015 29.97 844 24.92 9.3 48.8 74 4.9 40.8
12:00 1015 29.97 844 24.92 9.5 49.1 73 4.9 40.9
12:05 1015 29.97 844 24.92 9.8 49.6 70 4.7 40.4
12:10 1015 29.97 844 24.92 10 50 66 4.1 39.3
12:15 1015 29.97 844 24.92 10.1 50.2 67 4.3 39.8
12:20 1015 29.97 844 24.92 10.2 50.3 69 4.8 40.6
12:25 1015 29.97 844 24.92 10.2 50.4 67 4.4 39.9
12:30 1015 29.97 844 24.92 10.1 50.3 71 5.1 41.2
12:35 1015 29.97 844 24.92 9.4 48.8 75 5.2 41.4
12:40 1015 29.97 844 24.92 8.3 46.9 78 4.7 40.5
12:45 1015 29.97 844 24.92 7.9 46.3 79 4.5 40
12:50 1015 29.97 844 24.92 8 46.5 76 4 39.3
12:55 1015 29.97 844 24.92 8.2 46.8 75 4.2 39.5
13:00 1015 29.97 844 24.92 8.6 47.6 75 4.5 40.1
13:05 1015 29.97 844 24.92 8.9 48 78 5.2 41.4
13:10 1015 29.97 844 24.92 9.3 48.7 74 4.9 40.8
13:15 1015 29.97 844 24.92 9.8 49.6 72 5 41
13:20 1015 29.97 844 24.92 10.4 50.7 65 4.1 39.4
13:25 1015 29.97 844 24.92 10.8 51.4 64 4.2 39.6
13:30 1015 29.97 844 24.92 10.9 51.6 64 4.3 39.8
13:35 1015 29.97 844 24.92 11.3 52.4 61 4 39.3
13:40 1015 29.97 844 24.92 11.3 52.3 58 3.5 38.2
13:45 1015 29.97 844 24.92 11.3 52.3 58 3.4 38.1
13:50 1015 29.97 844 24.92 11.1 52 57 3 37.4
13:55 1015 29.97 844 24.92 11.2 52.2 60 3.7 38.6
14:00 1015 29.97 844 24.92 11.9 53.5 56 3.4 38.1
14:05 1015 29.97 844 24.92 11.9 53.4 55 3.2 37.8
14:10 1015 29.97 844 24.92 12.5 54.5 54 3.6 38.5
14:15 1015 29.97 844 24.92 12.9 55.2 53 3.5 38.3
14:20 1015 29.97 844 24.92 13 55.4 50 3 37.3
14:25 1015 29.97 844 24.92 13.3 56 49 2.9 37.2
14:30 1015 29.97 844 24.92 13.8 56.8 48 3.1 37.5
14:35 1015 29.97 844 24.92 13.4 56.2 50 3.3 37.9
14:40 1015 29.97 844 24.92 12.5 54.6 52 3 37.4
14:45 1015 29.97 844 24.92 12.7 54.9 50 2.7 36.8
14:50 1015 29.97 844 24.92 13.2 55.7 50 2.9 37.2
14:55 1015 29.97 844 24.92 13.8 56.8 44 1.8 35.3
15:00 1015 29.97 844 24.92 14.1 57.3 44 2.1 35.9
15:05 1015 29.97 844 24.92 14 57.2 49 3.4 38.1
15:10 1015 29.97 844 24.92 13.3 55.9 48 2.6 36.6
15:15 1015 29.97 844 24.92 14.3 57.7 43 2 35.5
15:20 1015 29.97 844 24.92 13.8 56.9 48 3 37.3
15:25 1015 29.97 844 24.92 13.4 56.2 46 2.3 36.1
15:30 1015 29.97 844 24.92 13.4 56.1 48 2.7 36.8
15:35 1015 29.97 844 24.92 13.3 55.9 56 4.8 40.6
15:40 1015 29.97 844 24.92 12.7 54.8 58 4.7 40.4
15:45 1015 29.97 845 24.95 11.6 52.9 65 5.2 41.4
15:50 1015 29.97 845 24.95 11.1 52 58 3.3 37.9
15:55 1015 29.97 844 24.92 11.1 51.9 59 3.5 38.2
16:00 1015 29.97 845 24.95 11 51.9 53 1.9 35.4
16:05 1016 30 845 24.95 10.8 51.5 55 2.2 35.9
16:10 1016 30 845 24.95 10.5 51 58 2.8 37
16:15 1016 30 845 24.95 9.7 49.4 58 1.9 35.4
16:20 1016 30 845 24.95 9.3 48.7 62 2.3 36.2
16:25 1016 30 845 24.95 9.1 48.3 63 2.5 36.5
16:30 1016 30 845 24.95 9 48.2 63 2.4 36.4
16:35 1016 30 845 24.95 9.2 48.6 63 2.6 36.6
16:40 1016 30 845 24.95 9.5 49.1 63 2.9 37.2
16:45 1016 30 845 24.95 9.5 49.1 63 2.9 37.2
16:50 1016 30 845 24.95 9.8 49.7 59 2.3 36.1
16:55 1016 30 845 24.95 10 49.9 60 2.6 36.6
17:00 1016 30 845 24.95 10.1 50.1 62 3.2 37.8
17:05 1016 30 845 24.95 9.9 49.9 61 2.8 37.1
17:10 1016 30 845 24.95 10.2 50.4 58 2.4 36.3
17:15 1016 30 845 24.95 10.5 50.9 58 2.5 36.5
17:20 1016 30 845 24.95 10.5 50.8 58 2.5 36.5
17:25 1016 30 845 24.95 10.4 50.6 59 2.7 36.9
17:30 1016 30 845 24.95 10.2 50.4 59 2.7 36.8
17:35 1016 30 845 24.95 10.1 50.2 61 2.9 37.3
17:40 1016 30 845 24.95 10 49.9 60 2.7 36.8
17:45 1016 30 845 24.95 9.9 49.9 61 2.7 36.9
17:50 1016 30 846 24.98 9.7 49.5 64 3.3 37.9
17:55 1017 30.03 846 24.98 9.5 49.1 67 3.6 38.5
18:00 1017 30.03 846 24.98 9.5 49.1 66 3.6 38.4
18:05 1017 30.03 846 24.98 9.6 49.3 68 4.1 39.4
18:10 1017 30.03 846 24.98 9.6 49.4 73 5.1 41.2
18:15 1017 30.03 846 24.98 9.5 49.1 68 3.9 39
18:20 1017 30.03 846 24.98 9.5 49.1 70 4.4 40
18:25 1017 30.03 846 24.98 9.5 49.1 72 4.7 40.4
18:30 1017 30.03 846 24.98 9.4 48.9 73 4.9 40.8
18:35 1017 30.03 846 24.98 9.4 48.9 73 4.8 40.6
18:40 1017 30.03 847 25.01 9.4 48.9 68 3.9 39.1
18:45 1017 30.03 847 25.01 9.6 49.2 69 4.2 39.5
18:50 1018 30.06 847 25.01 9.6 49.4 75 5.4 41.7
18:55 1018 30.06 847 25.01 9.5 49 70 4.3 39.8
19:00 1018 30.06 847 25.01 9.5 49 70 4.4 39.9
19:05 1018 30.06 847 25.01 9.5 49.1 64 3.1 37.7
19:10 1018 30.06 847 25.01 9.6 49.4 63 3 37.4
19:15 1018 30.06 847 25.01 9.6 49.3 66 3.5 38.3
19:20 1018 30.06 847 25.01 9.5 49.1 65 3.2 37.7
19:25 1018 30.06 847 25.01 9.4 48.9 67 3.5 38.4
19:30 1018 30.06 847 25.01 9.3 48.7 66 3.3 38
19:35 1018 30.06 847 25.01 9.2 48.5 67 3.4 38.1
19:40 1018 30.06 847 25.01 9 48.2 68 3.4 38.2
19:45 1018 30.06 848 25.04 8.9 48.1 67 3.1 37.5
19:50 1018 30.06 848 25.04 9 48.2 64 2.6 36.7
19:55 1019 30.09 848 25.04 9.2 48.5 65 3 37.4
20:00 1019 30.09 848 25.04 9.2 48.6 65 2.9 37.3
20:05 1019 30.09 848 25.04 9 48.3 67 3.2 37.8
20:10 1019 30.09 848 25.04 8.8 47.9 67 3.1 37.5
20:15 1019 30.09 848 25.04 8.7 47.6 68 3.2 37.7
20:20 1019 30.09 848 25.04 8.5 47.3 69 3.1 37.6
20:25 1019 30.09 848 25.04 8.4 47.1 69 3.1 37.6
20:30 1019 30.09 848 25.04 8.2 46.8 70 3.1 37.5
20:35 1019 30.09 848 25.04 8.1 46.5 69 2.8 37.1
20:40 1019 30.09 848 25.04 8.2 46.7 66 2.3 36.2
20:45 1019 30.09 848 25.04 8.3 46.9 66 2.3 36.1
20:50 1019 30.09 848 25.04 8.4 47.1 64 2 35.6
20:55 1019 30.09 848 25.04 8.6 47.4 63 1.9 35.4
21:00 1019 30.09 848 25.04 8.8 47.8 62 2 35.6
21:05 1019 30.09 848 25.04 8.7 47.7 62 2 35.5
21:10 1019 30.09 848 25.04 8.7 47.6 62 1.8 35.3
21:15 1019 30.09 848 25.04 8.5 47.3 62 1.7 35.1
21:20 1019 30.09 848 25.04 8.4 47.1 62 1.6 34.9
21:25 1019 30.09 849 25.07 8.3 46.9 63 1.7 35.1
21:30 1019 30.09 849 25.07 8.1 46.5 64 1.7 35
21:35 1019 30.09 849 25.07 7.9 46.3 64 1.7 35
21:40 1019 30.09 849 25.07 7.9 46.1 65 1.7 35.1
21:45 1020 30.12 849 25.07 7.8 46 66 1.9 35.3
21:50 1020 30.12 849 25.07 7.7 45.9 67 1.9 35.4
21:55 1020 30.12 849 25.07 7.7 45.8 67 2 35.6
22:00 1020 30.12 849 25.07 7.6 45.6 68 2 35.7
22:05 1020 30.12 849 25.07 7.4 45.3 69 2.1 35.8
22:10 1020 30.12 849 25.07 7.3 45.1 70 2.2 35.9
22:15 1020 30.12 849 25.07 7.2 45 70 2.1 35.8
22:20 1020 30.12 849 25.07 7.3 45.1 69 2 35.5
22:25 1020 30.12 849 25.07 7.4 45.3 68 2 35.5
22:30 1020 30.12 849 25.07 7.4 45.4 69 2.2 35.9
22:35 1020 30.12 849 25.07 7.2 44.9 74 2.9 37.2
22:40 1020 30.12 849 25.07 7 44.6 74 2.6 36.7
22:45 1020 30.12 849 25.07 7.1 44.7 72 2.4 36.3
22:50 1020 30.12 849 25.07 7.2 44.9 72 2.4 36.4
22:55 1020 30.12 849 25.07 7.2 45 71 2.4 36.3
23:00 1020 30.12 849 25.07 7.3 45.1 71 2.4 36.3
23:05 1020 30.12 849 25.07 7.3 45.1 71 2.4 36.3
23:10 1020 30.12 850 25.1 7.3 45.1 72 2.6 36.7
23:15 1020 30.12 850 25.1 7.3 45.1 71 2.4 36.3
23:20 1020 30.12 850 25.1 7.2 45 72 2.6 36.7
23:25 1020 30.12 850 25.1 7.2 45 72 2.5 36.5
23:30 1021 30.15 850 25.1 7.2 44.9 73 2.7 36.8
23:35 1021 30.15 850 25.1 7.2 44.9 74 2.8 37
23:40 1021 30.15 850 25.1 7.1 44.8 74 2.7 36.9
23:45 1021 30.15 850 25.1 7 44.7 75 2.8 37.1
23:50 1021 30.15 850 25.1 6.9 44.4 75 2.8 37
23:55 1021 30.15 850 25.1 6.8 44.2 76 2.9 37.2
24:00 1021 30.15 850 25.1 6.6 43.9 76 2.7 36.9